LLSD

Details ICAO LLSD (SDV)
Name Sde Dov
Region Israel
Timezone Asia/Jerusalem (UTC+2.0)
Plans Departing 24
Arriving 34
Stats Elevation 43 ft / 13 m (AMSL)
Location 32.114661° 34.782238°
Runways 1
Magnetic Variation 4.696° E
Sunrise 2017-12-12 04:33:37 UTC / 2017-12-12 06:33:37 Local
Sunset 2017-12-12 14:38:21 UTC / 2017-12-12 16:38:21 Local
Advertisement - Login to hide

Runways

ID Width Length Bearing (true) Bearing (mag) Surface Threshold Offset Overrun Length
03 98 ft / 30 m 5,704 ft / 1,738 m 27.61° 22.91° Asphalt 341 ft / 104 m 0 ft / 0 m
21 98 ft / 30 m 5,704 ft / 1,738 m 207.61° 202.91° Asphalt 230 ft / 70 m 0 ft / 0 m

Map

Weather


0- 5 10 15 20 25 30 35+ Temperature / ° C

Clouds and Precipitation
Forecast for 2017-12-12 18:00 UTC. Updated 41 minutes ago

Ground ~20,000 ft ~40,000 ft Winds

METAR

LLSD 121350Z VRB02KT CAVOK 22/13 Q1017

TAF

TAF LLSD 121106Z 1212/1312 23006KT CAVOK BECMG 1215/1217 17006KT BECMG 1302/1304 21012KT 7000 SCT012 PROB40 1304/1307 5000 BR BKN010 BECMG 1307/1309 26010KT 9999 SCT025 TX25/1212Z TN15/1304Z

Frequencies

Recorded 122.90 MHz ATIS
Tower 125.25 MHz TAMROOR TWR
Ground 121.05 MHz TAMROOR TAXI
Approach 125.25 MHz TAMROOR APP
Warning: Do not use this data for real-world aviation or navigation. No guarantee of current accuracy is given.